createdAt,value
2022-10-29T00:00:25.723Z,101709.03
2022-10-29T00:03:35.594Z,101716.13
2022-10-29T00:06:44.778Z,101724.09
2022-10-29T00:09:53.256Z,101724.53
2022-10-29T00:13:01.697Z,101721.97
2022-10-29T00:16:25.751Z,101722.25
2022-10-29T00:19:34.701Z,101730.62
2022-10-29T00:22:49.749Z,101731.94
2022-10-29T00:26:02.742Z,101731.47
2022-10-29T00:29:11.324Z,101732.34
2022-10-29T00:32:25.714Z,101739.31
2022-10-29T00:35:33.722Z,101728.53
2022-10-29T00:38:49.698Z,101733.03
2022-10-29T00:41:57.742Z,101730.47
2022-10-29T00:45:13.737Z,101729.22
2022-10-29T00:48:16.251Z,101727.53
2022-10-29T00:51:32.733Z,101733.31
2022-10-29T00:54:37.746Z,101732.47
2022-10-29T00:57:59.149Z,101733.75
2022-10-29T01:01:08.730Z,101720.97
2022-10-29T01:04:18.495Z,101726.66
2022-10-29T01:07:28.818Z,101718.66
2022-10-29T01:11:04.723Z,101706.75
2022-10-29T01:14:38.741Z,101700.06
2022-10-29T01:18:07.512Z,101699.50
2022-10-29T01:21:43.935Z,101690.28
2022-10-29T01:25:11.371Z,101686.44
2022-10-29T01:28:47.762Z,101672.94
2022-10-29T01:31:54.885Z,101677.31
2022-10-29T01:35:21.794Z,101673.91
2022-10-29T01:38:44.787Z,101669.22
2022-10-29T01:42:02.563Z,101664.81
2022-10-29T01:45:22.734Z,101664.25
2022-10-29T01:48:35.666Z,101656.87
2022-10-29T01:51:45.768Z,101657.72
2022-10-29T01:54:54.819Z,101655.03
2022-10-29T01:58:12.806Z,101647.22
2022-10-29T02:01:30.489Z,101653.75
2022-10-29T02:05:03.765Z,101648.06
2022-10-29T02:08:36.507Z,101645.34
2022-10-29T02:11:57.724Z,101648.44
2022-10-29T02:15:13.027Z,101661.09
2022-10-29T02:18:28.721Z,101660.69
2022-10-29T02:21:30.533Z,101657.56
2022-10-29T02:24:44.737Z,101653.16
2022-10-29T02:27:52.975Z,101648.34
2022-10-29T02:31:07.768Z,101640.50
2022-10-29T02:34:16.026Z,101651.13
2022-10-29T02:37:30.771Z,101655.28
2022-10-29T02:40:38.758Z,101649.75
2022-10-29T02:43:47.269Z,101662.94
2022-10-29T02:46:55.773Z,101656.56
2022-10-29T02:50:04.712Z,101648.59
2022-10-29T02:53:12.823Z,101644.50
2022-10-29T02:56:27.753Z,101643.19
2022-10-29T02:59:29.618Z,101642.78
2022-10-29T03:02:44.839Z,101638.25
2022-10-29T03:05:49.103Z,101638.25
2022-10-29T03:09:04.770Z,101643.50
2022-10-29T03:12:13.417Z,101649.75
2022-10-29T03:15:27.767Z,101647.59
2022-10-29T03:18:29.661Z,101646.19
2022-10-29T03:21:44.757Z,101621.72
2022-10-29T03:24:52.819Z,101643.34
2022-10-29T03:28:07.777Z,101642.75
2022-10-29T03:31:09.548Z,101639.19
2022-10-29T03:34:30.793Z,101638.91
2022-10-29T03:37:46.848Z,101634.06
2022-10-29T03:40:54.856Z,101636.66
2022-10-29T03:44:03.481Z,101630.37
2022-10-29T03:47:23.813Z,101636.31
2022-10-29T03:50:25.871Z,101643.13
2022-10-29T03:53:42.810Z,101638.31
2022-10-29T03:56:57.785Z,101637.91
2022-10-29T03:59:59.522Z,101633.06
2022-10-29T04:03:13.831Z,101632.06
2022-10-29T04:06:22.805Z,101640.72
2022-10-29T04:09:31.941Z,101642.69
2022-10-29T04:12:39.835Z,101637.16
2022-10-29T04:15:54.885Z,101641.00
2022-10-29T04:19:03.178Z,101645.22
2022-10-29T04:27:08.299Z,101650.22
2022-10-29T04:29:14.856Z,101646.13
2022-10-29T04:32:23.158Z,101650.97
2022-10-29T04:35:37.830Z,101647.53
2022-10-29T04:38:39.670Z,101643.87
2022-10-29T04:41:54.799Z,101639.19
2022-10-29T04:45:02.859Z,101636.59
2022-10-29T04:48:11.436Z,101643.13
2022-10-29T04:51:31.828Z,101634.91
2022-10-29T04:54:46.822Z,101644.28
2022-10-29T04:57:50.151Z,101629.22
2022-10-29T05:01:09.958Z,101633.78
2022-10-29T05:04:24.823Z,101635.47
2022-10-29T05:07:32.877Z,101636.34
2022-10-29T05:10:41.361Z,101630.09
2022-10-29T05:13:49.814Z,101642.47
2022-10-29T05:17:04.870Z,101644.88
2022-10-29T05:20:07.183Z,101647.44
2022-10-29T05:23:21.858Z,101641.72
2022-10-29T05:26:31.700Z,101638.34
2022-10-29T05:29:39.902Z,101637.19
2022-10-29T05:32:55.442Z,101626.41
2022-10-29T05:36:05.880Z,101638.59
2022-10-29T05:39:14.578Z,101633.63
2022-10-29T05:42:22.861Z,101638.59
2022-10-29T05:45:37.839Z,101641.19
2022-10-29T05:48:46.907Z,101641.19
2022-10-29T05:52:01.853Z,101646.16
2022-10-29T05:55:04.118Z,101645.44
2022-10-29T05:58:19.838Z,101644.00
2022-10-29T06:01:28.015Z,101644.81
2022-10-29T06:04:42.856Z,101648.25
2022-10-29T06:07:50.854Z,101631.47
2022-10-29T06:11:07.860Z,101635.19
2022-10-29T06:14:09.614Z,101630.09
2022-10-29T06:17:23.849Z,101623.25
2022-10-29T06:20:25.572Z,101632.31
2022-10-29T06:23:39.872Z,101630.94
2022-10-29T06:26:47.878Z,101641.88
2022-10-29T06:29:56.410Z,101652.94
2022-10-29T06:33:11.919Z,101653.78
2022-10-29T06:36:27.066Z,101649.28
2022-10-29T06:39:28.804Z,101653.69
2022-10-29T06:42:44.868Z,101659.09
2022-10-29T06:45:46.589Z,101653.09
2022-10-29T06:49:00.954Z,101650.53
2022-10-29T06:52:02.896Z,101652.22
2022-10-29T06:55:17.913Z,101648.81
2022-10-29T06:58:20.964Z,101649.81
2022-10-29T07:01:36.185Z,101661.16
2022-10-29T07:04:41.268Z,101646.28
2022-10-29T07:07:57.237Z,101641.53
2022-10-29T07:11:05.876Z,101651.88
2022-10-29T07:14:14.501Z,101642.66
2022-10-29T07:17:22.912Z,101642.97
2022-10-29T07:20:40.957Z,101647.09
2022-10-29T07:23:48.973Z,101667.81
2022-10-29T07:27:03.984Z,101667.53
2022-10-29T07:30:06.363Z,101673.50
2022-10-29T07:33:27.945Z,101684.00
2022-10-29T07:36:36.944Z,101683.47
2022-10-29T07:39:47.006Z,101685.25
2022-10-29T07:43:02.955Z,101684.72
2022-10-29T07:46:11.836Z,101685.47
2022-10-29T07:49:19.961Z,101663.31
2022-10-29T07:52:28.547Z,101671.44
2022-10-29T07:55:36.927Z,101664.63
2022-10-29T07:58:51.942Z,101660.63
2022-10-29T08:01:53.778Z,101672.16
2022-10-29T08:05:08.906Z,101658.62
2022-10-29T08:08:17.568Z,101657.91
2022-10-29T08:11:25.929Z,101659.66
2022-10-29T08:14:34.396Z,101665.91
2022-10-29T08:17:42.959Z,101668.41
2022-10-29T08:20:51.829Z,101663.47
2022-10-29T08:23:59.954Z,101665.59
2022-10-29T08:27:08.551Z,101660.22
2022-10-29T08:30:19.950Z,101659.53
2022-10-29T08:33:42.971Z,101681.81
2022-10-29T08:36:50.941Z,101672.16
2022-10-29T08:39:59.662Z,101671.16
2022-10-29T08:43:29.990Z,101669.62
2022-10-29T08:47:03.708Z,101674.50
2022-10-29T08:50:24.391Z,101670.50
2022-10-29T08:54:10.280Z,101660.84
2022-10-29T08:57:15.829Z,101657.44
2022-10-29T09:00:39.002Z,101645.91
2022-10-29T09:03:40.810Z,101664.13
2022-10-29T09:07:16.944Z,101656.31
2022-10-29T09:10:32.760Z,101659.00
2022-10-29T09:14:09.953Z,101662.97
2022-10-29T09:17:33.476Z,101657.16
2022-10-29T09:20:58.991Z,101648.34
2022-10-29T09:24:15.189Z,101648.75
2022-10-29T09:27:36.970Z,101659.97
2022-10-29T09:31:15.399Z,101658.38
2022-10-29T09:34:47.947Z,101645.19
2022-10-29T09:38:02.991Z,101657.69
2022-10-29T09:41:12.436Z,101661.13
2022-10-29T09:44:31.986Z,101663.56
2022-10-29T09:48:04.246Z,101660.28
2022-10-29T09:51:26.355Z,101644.94
2022-10-29T09:54:40.980Z,101635.28
2022-10-29T09:57:48.976Z,101643.97
2022-10-29T10:01:04.013Z,101642.25
2022-10-29T10:04:28.982Z,101651.81
2022-10-29T10:07:36.995Z,101634.44
2022-10-29T10:10:55.917Z,101636.84
2022-10-29T10:14:22.037Z,101625.16
2022-10-29T10:17:30.050Z,101631.28
2022-10-29T10:20:49.026Z,101632.91
2022-10-29T10:23:52.890Z,101620.78
2022-10-29T10:27:31.064Z,101618.78
2022-10-29T10:30:32.771Z,101607.13
2022-10-29T10:34:00.997Z,101614.50
2022-10-29T10:37:12.041Z,101607.81
2022-10-29T10:40:24.737Z,101608.25
2022-10-29T10:43:34.027Z,101610.84
2022-10-29T10:46:44.569Z,101613.53
2022-10-29T10:49:53.001Z,101600.63
2022-10-29T10:53:12.005Z,101596.06
2022-10-29T10:56:24.989Z,101595.91
2022-10-29T10:59:50.500Z,101598.47
2022-10-29T11:03:07.995Z,101591.50
2022-10-29T11:06:37.610Z,101591.50
2022-10-29T11:09:52.993Z,101573.47
2022-10-29T11:13:07.590Z,101580.00
2022-10-29T11:16:37.038Z,101573.59
2022-10-29T11:19:50.020Z,101579.97
2022-10-29T11:23:13.030Z,101570.75
2022-10-29T11:26:38.035Z,101571.28
2022-10-29T11:29:52.093Z,101569.28
2022-10-29T11:33:40.050Z,101567.25
2022-10-29T11:36:52.743Z,101564.12
2022-10-29T11:40:13.047Z,101560.38
2022-10-29T11:43:25.026Z,101556.13
2022-10-29T11:46:49.801Z,101554.59
2022-10-29T11:50:28.042Z,101554.47
2022-10-29T11:53:55.433Z,101543.31
2022-10-29T11:57:08.043Z,101546.53
2022-10-29T12:00:19.995Z,101546.72
2022-10-29T12:03:48.078Z,101550.09
2022-10-29T12:07:13.767Z,101539.75
2022-10-29T12:10:43.029Z,101537.03
2022-10-29T12:14:27.066Z,101536.03
2022-10-29T12:17:47.218Z,101543.44
2022-10-29T12:21:28.066Z,101530.62
2022-10-29T12:25:07.083Z,101526.59
2022-10-29T12:28:41.151Z,101529.25
2022-10-29T12:32:07.131Z,101518.53
2022-10-29T12:35:47.158Z,101508.16
2022-10-29T12:39:00.117Z,101509.62
2022-10-29T12:42:17.747Z,101498.06
2022-10-29T12:45:48.063Z,101488.91
2022-10-29T12:49:36.053Z,101491.66
2022-10-29T12:52:51.066Z,101490.72
2022-10-29T12:56:06.047Z,101481.75
2022-10-29T12:59:30.996Z,101488.16
2022-10-29T13:02:49.152Z,101479.91
2022-10-29T13:05:57.081Z,101476.25
2022-10-29T13:09:18.384Z,101474.53
2022-10-29T13:12:56.081Z,101475.44
2022-10-29T13:16:14.244Z,101475.97
2022-10-29T13:19:30.089Z,101477.50
2022-10-29T13:22:53.152Z,101472.41
2022-10-29T13:26:04.100Z,101482.97
2022-10-29T13:29:12.626Z,101485.50
2022-10-29T13:32:39.129Z,101482.66
2022-10-29T13:36:02.546Z,101476.66
2022-10-29T13:39:24.102Z,101484.28
2022-10-29T13:42:33.543Z,101478.66
2022-10-29T13:45:46.142Z,101470.19
2022-10-29T13:49:04.114Z,101475.16
2022-10-29T13:52:26.142Z,101465.59
2022-10-29T13:55:43.125Z,101469.97
2022-10-29T13:58:55.087Z,101467.34
2022-10-29T14:02:22.118Z,101468.75
2022-10-29T14:05:37.243Z,101470.66
2022-10-29T14:09:01.124Z,101460.84
2022-10-29T14:12:07.824Z,101451.13
2022-10-29T14:15:22.131Z,101456.38
2022-10-29T14:18:42.105Z,101453.91
2022-10-29T14:21:50.585Z,101454.50
2022-10-29T14:25:07.110Z,101457.47
2022-10-29T14:28:23.602Z,101457.88
2022-10-29T14:31:33.156Z,101463.56
2022-10-29T14:34:50.381Z,101464.84
2022-10-29T14:38:00.293Z,101470.44
2022-10-29T14:41:09.886Z,101472.44
2022-10-29T14:44:24.123Z,101468.44
2022-10-29T14:47:42.165Z,101465.44
2022-10-29T14:50:49.533Z,101456.63
2022-10-29T14:54:09.140Z,101455.66
2022-10-29T14:57:15.554Z,101444.34
2022-10-29T15:00:34.139Z,101457.81
2022-10-29T15:03:42.148Z,101455.06
2022-10-29T15:06:50.774Z,101463.25
2022-10-29T15:10:19.158Z,101460.13
2022-10-29T15:13:40.187Z,101456.12
2022-10-29T15:16:47.157Z,101447.59
2022-10-29T15:20:08.185Z,101451.59
2022-10-29T15:23:26.402Z,101443.19
2022-10-29T15:26:50.186Z,101435.81
2022-10-29T15:30:00.191Z,101425.84
2022-10-29T15:33:20.338Z,101422.44
2022-10-29T15:36:59.141Z,101421.69
2022-10-29T15:40:20.166Z,101434.19
2022-10-29T15:43:30.163Z,101428.50
2022-10-29T15:46:54.171Z,101435.19
2022-10-29T15:50:10.178Z,101434.34
2022-10-29T15:53:18.718Z,101430.41
2022-10-29T15:56:27.195Z,101440.78
2022-10-29T15:59:35.830Z,101439.28
2022-10-29T16:02:44.149Z,101429.03
2022-10-29T16:06:03.175Z,101453.03
2022-10-29T16:09:26.275Z,101473.09
2022-10-29T16:12:27.992Z,101461.03
2022-10-29T16:15:44.305Z,101446.06
2022-10-29T16:18:54.182Z,101441.97
2022-10-29T16:22:09.189Z,101423.25
2022-10-29T16:25:20.638Z,101449.94
2022-10-29T16:28:35.177Z,101446.22
2022-10-29T16:31:37.118Z,101450.78
2022-10-29T16:34:59.194Z,101449.47
2022-10-29T16:38:07.201Z,101444.53
2022-10-29T16:41:25.207Z,101440.41
2022-10-29T16:44:26.898Z,101433.28
2022-10-29T16:47:41.202Z,101431.44
2022-10-29T16:50:49.195Z,101435.72
2022-10-29T16:54:04.183Z,101438.66
2022-10-29T16:57:06.109Z,101436.44
2022-10-29T17:00:22.221Z,101440.81
2022-10-29T17:03:30.245Z,101429.59
2022-10-29T17:06:45.214Z,101435.97
2022-10-29T17:10:00.177Z,101434.44
2022-10-29T17:13:15.216Z,101420.37
2022-10-29T17:16:30.219Z,101423.63
2022-10-29T17:19:32.638Z,101431.56
2022-10-29T17:22:47.199Z,101424.31
2022-10-29T17:25:59.217Z,101443.94
2022-10-29T17:29:08.101Z,101438.66
2022-10-29T17:32:17.217Z,101399.94
2022-10-29T17:35:39.219Z,101406.41
2022-10-29T17:38:41.379Z,101411.81
2022-10-29T17:41:57.271Z,101420.06
2022-10-29T17:44:59.181Z,101413.66
2022-10-29T17:48:15.265Z,101405.97
2022-10-29T17:51:17.210Z,101410.37
2022-10-29T17:54:34.944Z,101425.75
2022-10-29T17:57:44.306Z,101428.03
2022-10-29T18:00:53.470Z,101436.28
2022-10-29T18:04:02.343Z,101433.03
2022-10-29T18:07:10.966Z,101423.06
2022-10-29T18:10:25.228Z,101424.63
2022-10-29T18:13:42.233Z,101412.66
2022-10-29T18:16:44.161Z,101410.81
2022-10-29T18:19:59.226Z,101414.66
2022-10-29T18:23:01.470Z,101429.87
2022-10-29T18:26:28.229Z,101435.56
2022-10-29T18:29:37.237Z,101421.06
2022-10-29T18:32:59.626Z,101413.81
2022-10-29T18:36:14.268Z,101409.91
2022-10-29T18:39:29.290Z,101417.63
2022-10-29T18:42:38.153Z,101427.84
2022-10-29T18:46:09.278Z,101431.00
2022-10-29T18:49:18.299Z,101432.00
2022-10-29T18:52:27.454Z,101417.19
2022-10-29T18:55:36.310Z,101408.69
2022-10-29T18:58:45.536Z,101398.25
2022-10-29T19:01:54.406Z,101401.66
2022-10-29T19:05:03.192Z,101400.28
2022-10-29T19:08:13.286Z,101390.63
2022-10-29T19:11:24.427Z,101378.12
2022-10-29T19:14:33.278Z,101388.03
2022-10-29T19:17:42.170Z,101377.22
2022-10-29T19:20:58.282Z,101377.34
2022-10-29T19:24:07.290Z,101384.47
2022-10-29T19:27:16.019Z,101377.34
2022-10-29T19:30:25.259Z,101374.38
2022-10-29T19:33:41.302Z,101375.91
2022-10-29T19:36:57.297Z,101377.31
2022-10-29T19:40:14.310Z,101367.66
2022-10-29T19:43:16.802Z,101377.75
2022-10-29T19:46:33.259Z,101374.91
2022-10-29T19:49:35.810Z,101381.91
2022-10-29T19:52:50.334Z,101373.81
2022-10-29T19:55:53.522Z,101374.06
2022-10-29T19:59:10.296Z,101367.12
2022-10-29T20:02:12.801Z,101362.87
2022-10-29T20:05:29.333Z,101363.47
2022-10-29T20:08:38.645Z,101360.06
2022-10-29T20:11:48.298Z,101354.03
2022-10-29T20:15:03.295Z,101353.34
2022-10-29T20:18:05.782Z,101355.03
2022-10-29T20:21:21.340Z,101364.56
2022-10-29T20:24:30.289Z,101352.19
2022-10-29T20:27:39.126Z,101356.75
2022-10-29T20:30:47.350Z,101356.34
2022-10-29T20:34:09.326Z,101350.66
2022-10-29T20:37:17.280Z,101360.72
2022-10-29T20:40:25.903Z,101368.16
2022-10-29T20:43:34.391Z,101362.59
2022-10-29T20:46:49.330Z,101360.28
2022-10-29T20:49:57.339Z,101366.25
2022-10-29T20:53:13.370Z,101368.87
2022-10-29T20:56:21.354Z,101371.66
2022-10-29T20:59:29.998Z,101367.12
2022-10-29T21:02:44.416Z,101363.09
2022-10-29T21:05:46.162Z,101369.34
2022-10-29T21:09:02.340Z,101368.66
2022-10-29T21:12:13.906Z,101359.00
2022-10-29T21:15:28.372Z,101358.00
2022-10-29T21:18:37.359Z,101364.56
2022-10-29T21:21:52.382Z,101369.13
2022-10-29T21:25:00.347Z,101369.97
2022-10-29T21:28:08.856Z,101371.09
2022-10-29T21:31:17.393Z,101365.41
2022-10-29T21:34:32.676Z,101373.53
2022-10-29T21:37:47.382Z,101371.34
2022-10-29T21:40:55.381Z,101368.34
2022-10-29T21:44:10.382Z,101366.66
2022-10-29T21:47:18.389Z,101368.34
2022-10-29T21:50:26.877Z,101375.06
2022-10-29T21:53:35.373Z,101370.13
2022-10-29T21:56:50.350Z,101373.22
2022-10-29T21:59:58.373Z,101371.66
2022-10-29T22:03:06.891Z,101368.97
2022-10-29T22:06:22.377Z,101364.94
2022-10-29T22:09:37.341Z,101363.78
2022-10-29T22:12:39.062Z,101356.63
2022-10-29T22:15:54.346Z,101353.13
2022-10-29T22:19:09.433Z,101349.00
2022-10-29T22:22:24.354Z,101353.94
2022-10-29T22:25:32.388Z,101356.78
2022-10-29T22:28:41.065Z,101359.66
2022-10-29T22:31:49.363Z,101359.50
2022-10-29T22:35:11.398Z,101358.97
2022-10-29T22:38:19.369Z,101347.50
2022-10-29T22:41:29.547Z,101349.38
2022-10-29T22:44:37.386Z,101343.97
2022-10-29T22:47:45.899Z,101340.53
2022-10-29T22:50:54.445Z,101328.59
2022-10-29T22:54:03.321Z,101333.22
2022-10-29T22:57:11.417Z,101336.19
2022-10-29T23:00:19.979Z,101329.78
2022-10-29T23:03:28.397Z,101325.22
2022-10-29T23:06:43.397Z,101316.75
2022-10-29T23:09:45.079Z,101313.03
2022-10-29T23:12:59.381Z,101317.59
2022-10-29T23:16:08.482Z,101320.12
2022-10-29T23:19:16.926Z,101318.16
2022-10-29T23:22:27.512Z,101314.06
2022-10-29T23:25:42.410Z,101303.63
2022-10-29T23:28:44.277Z,101323.22
2022-10-29T23:32:00.389Z,101324.31
2022-10-29T23:35:15.427Z,101321.69
2022-10-29T23:38:23.985Z,101316.34
2022-10-29T23:41:33.430Z,101308.72
2022-10-29T23:44:48.424Z,101307.81
2022-10-29T23:47:50.122Z,101310.72
2022-10-29T23:51:04.412Z,101303.16
2022-10-29T23:54:06.242Z,101307.00
2022-10-29T23:57:21.524Z,101311.41
